sensor_id;sensor_type;location;lat;lon;timestamp;P1;durP1;ratioP1;P2;durP2;ratioP2
3571;SDS011;7958;53.024;12.970;2022-12-18T00:02:24;21.83;;;9.53;;
3571;SDS011;7958;53.024;12.970;2022-12-18T00:04:50;19.57;;;9.80;;
3571;SDS011;7958;53.024;12.970;2022-12-18T00:07:17;19.50;;;8.90;;
3571;SDS011;7958;53.024;12.970;2022-12-18T00:09:43;23.27;;;10.87;;
3571;SDS011;7958;53.024;12.970;2022-12-18T00:12:09;21.67;;;8.37;;
3571;SDS011;7958;53.024;12.970;2022-12-18T00:14:37;23.30;;;9.50;;
3571;SDS011;7958;53.024;12.970;2022-12-18T00:17:03;22.97;;;9.20;;
3571;SDS011;7958;53.024;12.970;2022-12-18T00:19:30;20.77;;;10.00;;
3571;SDS011;7958;53.024;12.970;2022-12-18T00:21:56;25.50;;;9.67;;
3571;SDS011;7958;53.024;12.970;2022-12-18T00:24:23;23.63;;;9.80;;
3571;SDS011;7958;53.024;12.970;2022-12-18T00:26:49;25.77;;;11.00;;
3571;SDS011;7958;53.024;12.970;2022-12-18T00:29:15;20.50;;;9.57;;
3571;SDS011;7958;53.024;12.970;2022-12-18T00:31:43;21.00;;;9.60;;
3571;SDS011;7958;53.024;12.970;2022-12-18T00:34:10;30.13;;;12.40;;
3571;SDS011;7958;53.024;12.970;2022-12-18T00:36:37;20.50;;;9.40;;
3571;SDS011;7958;53.024;12.970;2022-12-18T00:39:04;29.70;;;9.63;;
3571;SDS011;7958;53.024;12.970;2022-12-18T00:41:31;22.30;;;9.30;;
3571;SDS011;7958;53.024;12.970;2022-12-18T00:44:16;38.43;;;12.70;;
3571;SDS011;7958;53.024;12.970;2022-12-18T00:46:44;14.10;;;8.13;;
3571;SDS011;7958;53.024;12.970;2022-12-18T00:49:13;21.50;;;9.33;;
3571;SDS011;7958;53.024;12.970;2022-12-18T00:51:39;23.37;;;10.77;;
3571;SDS011;7958;53.024;12.970;2022-12-18T00:54:06;33.00;;;11.10;;
3571;SDS011;7958;53.024;12.970;2022-12-18T00:56:34;27.37;;;10.13;;
3571;SDS011;7958;53.024;12.970;2022-12-18T00:59:01;24.20;;;10.70;;
3571;SDS011;7958;53.024;12.970;2022-12-18T01:01:27;28.83;;;11.10;;
3571;SDS011;7958;53.024;12.970;2022-12-18T01:03:58;25.40;;;10.77;;
3571;SDS011;7958;53.024;12.970;2022-12-18T01:06:25;19.40;;;8.20;;
3571;SDS011;7958;53.024;12.970;2022-12-18T01:08:52;22.10;;;10.03;;
3571;SDS011;7958;53.024;12.970;2022-12-18T01:11:18;24.33;;;9.20;;
3571;SDS011;7958;53.024;12.970;2022-12-18T01:13:46;19.57;;;9.07;;
3571;SDS011;7958;53.024;12.970;2022-12-18T01:16:13;18.60;;;8.40;;
3571;SDS011;7958;53.024;12.970;2022-12-18T01:18:39;15.83;;;7.57;;
3571;SDS011;7958;53.024;12.970;2022-12-18T01:21:09;16.23;;;7.37;;
3571;SDS011;7958;53.024;12.970;2022-12-18T01:23:36;26.33;;;8.43;;
3571;SDS011;7958;53.024;12.970;2022-12-18T01:26:04;19.70;;;8.87;;
3571;SDS011;7958;53.024;12.970;2022-12-18T01:28:31;24.10;;;10.03;;
3571;SDS011;7958;53.024;12.970;2022-12-18T01:31:01;27.93;;;10.13;;
3571;SDS011;7958;53.024;12.970;2022-12-18T01:33:35;16.43;;;8.30;;
3571;SDS011;7958;53.024;12.970;2022-12-18T01:36:01;15.37;;;8.30;;
3571;SDS011;7958;53.024;12.970;2022-12-18T01:38:29;17.40;;;8.60;;
3571;SDS011;7958;53.024;12.970;2022-12-18T01:40:56;17.23;;;8.60;;
3571;SDS011;7958;53.024;12.970;2022-12-18T01:46:08;16.63;;;8.90;;
3571;SDS011;7958;53.024;12.970;2022-12-18T01:48:35;24.17;;;9.30;;
3571;SDS011;7958;53.024;12.970;2022-12-18T01:51:01;19.53;;;8.10;;
3571;SDS011;7958;53.024;12.970;2022-12-18T01:53:27;20.63;;;8.67;;
3571;SDS011;7958;53.024;12.970;2022-12-18T01:55:56;21.60;;;8.57;;
3571;SDS011;7958;53.024;12.970;2022-12-18T01:58:27;23.97;;;8.33;;
3571;SDS011;7958;53.024;12.970;2022-12-18T02:00:58;24.33;;;9.07;;
3571;SDS011;7958;53.024;12.970;2022-12-18T02:03:24;21.63;;;9.07;;
3571;SDS011;7958;53.024;12.970;2022-12-18T02:05:52;22.23;;;9.10;;
3571;SDS011;7958;53.024;12.970;2022-12-18T02:08:23;18.60;;;8.83;;
3571;SDS011;7958;53.024;12.970;2022-12-18T02:11:05;21.03;;;9.97;;
3571;SDS011;7958;53.024;12.970;2022-12-18T02:13:36;24.83;;;11.43;;
3571;SDS011;7958;53.024;12.970;2022-12-18T02:16:07;32.50;;;12.17;;
3571;SDS011;7958;53.024;12.970;2022-12-18T02:18:36;24.03;;;9.90;;
3571;SDS011;7958;53.024;12.970;2022-12-18T02:21:08;30.63;;;11.07;;
3571;SDS011;7958;53.024;12.970;2022-12-18T02:23:42;16.70;;;8.20;;
3571;SDS011;7958;53.024;12.970;2022-12-18T02:26:27;19.27;;;8.30;;
3571;SDS011;7958;53.024;12.970;2022-12-18T02:28:56;20.80;;;8.93;;
3571;SDS011;7958;53.024;12.970;2022-12-18T02:31:26;17.03;;;7.43;;
3571;SDS011;7958;53.024;12.970;2022-12-18T02:33:54;20.73;;;8.83;;
3571;SDS011;7958;53.024;12.970;2022-12-18T02:36:22;24.27;;;8.67;;
3571;SDS011;7958;53.024;12.970;2022-12-18T02:38:49;24.30;;;9.57;;
3571;SDS011;7958;53.024;12.970;2022-12-18T02:41:18;22.07;;;9.67;;
3571;SDS011;7958;53.024;12.970;2022-12-18T02:43:46;24.73;;;9.57;;
3571;SDS011;7958;53.024;12.970;2022-12-18T02:46:27;19.67;;;7.63;;
3571;SDS011;7958;53.024;12.970;2022-12-18T02:48:57;28.90;;;9.50;;
3571;SDS011;7958;53.024;12.970;2022-12-18T02:51:30;20.30;;;8.70;;
3571;SDS011;7958;53.024;12.970;2022-12-18T02:54:01;20.27;;;9.00;;
3571;SDS011;7958;53.024;12.970;2022-12-18T02:56:35;18.80;;;8.70;;
3571;SDS011;7958;53.024;12.970;2022-12-18T02:59:05;24.20;;;9.23;;
3571;SDS011;7958;53.024;12.970;2022-12-18T03:01:35;23.37;;;9.80;;
3571;SDS011;7958;53.024;12.970;2022-12-18T03:04:07;24.93;;;9.23;;
3571;SDS011;7958;53.024;12.970;2022-12-18T03:06:37;23.57;;;10.37;;
3571;SDS011;7958;53.024;12.970;2022-12-18T03:09:07;23.10;;;10.00;;
3571;SDS011;7958;53.024;12.970;2022-12-18T03:11:37;24.37;;;10.37;;
3571;SDS011;7958;53.024;12.970;2022-12-18T03:14:23;29.23;;;10.70;;
3571;SDS011;7958;53.024;12.970;2022-12-18T03:16:53;23.03;;;9.10;;
3571;SDS011;7958;53.024;12.970;2022-12-18T03:19:22;20.47;;;9.13;;
3571;SDS011;7958;53.024;12.970;2022-12-18T03:21:50;19.77;;;8.97;;
3571;SDS011;7958;53.024;12.970;2022-12-18T03:24:18;13.70;;;7.83;;
3571;SDS011;7958;53.024;12.970;2022-12-18T03:26:47;15.93;;;8.63;;
3571;SDS011;7958;53.024;12.970;2022-12-18T03:29:17;19.07;;;8.80;;
3571;SDS011;7958;53.024;12.970;2022-12-18T03:31:47;24.53;;;9.27;;
3571;SDS011;7958;53.024;12.970;2022-12-18T03:34:17;21.57;;;10.00;;
3571;SDS011;7958;53.024;12.970;2022-12-18T03:36:45;26.97;;;10.27;;
3571;SDS011;7958;53.024;12.970;2022-12-18T03:39:11;20.90;;;8.57;;
3571;SDS011;7958;53.024;12.970;2022-12-18T03:41:40;20.97;;;8.97;;
3571;SDS011;7958;53.024;12.970;2022-12-18T03:44:12;30.63;;;10.90;;
3571;SDS011;7958;53.024;12.970;2022-12-18T03:46:41;22.63;;;9.60;;
3571;SDS011;7958;53.024;12.970;2022-12-18T03:49:10;26.60;;;9.10;;
3571;SDS011;7958;53.024;12.970;2022-12-18T03:51:40;25.17;;;10.73;;
3571;SDS011;7958;53.024;12.970;2022-12-18T03:54:09;22.20;;;9.60;;
3571;SDS011;7958;53.024;12.970;2022-12-18T03:56:37;18.73;;;8.77;;
3571;SDS011;7958;53.024;12.970;2022-12-18T03:59:06;21.00;;;9.30;;
3571;SDS011;7958;53.024;12.970;2022-12-18T04:01:36;20.17;;;8.87;;
3571;SDS011;7958;53.024;12.970;2022-12-18T04:04:05;21.47;;;7.83;;
3571;SDS011;7958;53.024;12.970;2022-12-18T04:06:36;22.63;;;10.87;;
3571;SDS011;7958;53.024;12.970;2022-12-18T04:09:03;23.90;;;9.60;;
3571;SDS011;7958;53.024;12.970;2022-12-18T04:11:30;20.00;;;9.13;;
3571;SDS011;7958;53.024;12.970;2022-12-18T04:13:57;23.87;;;8.53;;
3571;SDS011;7958;53.024;12.970;2022-12-18T04:16:24;22.57;;;9.50;;
3571;SDS011;7958;53.024;12.970;2022-12-18T04:18:52;25.20;;;9.60;;
3571;SDS011;7958;53.024;12.970;2022-12-18T04:21:18;20.17;;;9.60;;
3571;SDS011;7958;53.024;12.970;2022-12-18T04:23:45;20.10;;;8.17;;
3571;SDS011;7958;53.024;12.970;2022-12-18T04:26:12;19.00;;;8.73;;
3571;SDS011;7958;53.024;12.970;2022-12-18T04:28:38;16.47;;;7.90;;
3571;SDS011;7958;53.024;12.970;2022-12-18T04:31:04;20.97;;;7.87;;
3571;SDS011;7958;53.024;12.970;2022-12-18T04:33:31;20.97;;;8.80;;
3571;SDS011;7958;53.024;12.970;2022-12-18T04:35:59;22.60;;;9.20;;
3571;SDS011;7958;53.024;12.970;2022-12-18T04:38:25;15.73;;;7.77;;
3571;SDS011;7958;53.024;12.970;2022-12-18T04:40:52;17.50;;;8.90;;
3571;SDS011;7958;53.024;12.970;2022-12-18T04:43:18;19.10;;;8.73;;
3571;SDS011;7958;53.024;12.970;2022-12-18T04:45:45;18.10;;;8.10;;
3571;SDS011;7958;53.024;12.970;2022-12-18T04:48:11;20.30;;;8.77;;
3571;SDS011;7958;53.024;12.970;2022-12-18T04:50:37;23.37;;;9.30;;
3571;SDS011;7958;53.024;12.970;2022-12-18T04:53:05;20.47;;;9.40;;
3571;SDS011;7958;53.024;12.970;2022-12-18T04:55:32;16.80;;;7.90;;
3571;SDS011;7958;53.024;12.970;2022-12-18T04:57:58;20.07;;;8.50;;
3571;SDS011;7958;53.024;12.970;2022-12-18T05:00:24;23.40;;;9.40;;
3571;SDS011;7958;53.024;12.970;2022-12-18T05:02:51;24.23;;;10.27;;
3571;SDS011;7958;53.024;12.970;2022-12-18T05:05:17;22.57;;;9.33;;
3571;SDS011;7958;53.024;12.970;2022-12-18T05:07:43;24.20;;;9.90;;
3571;SDS011;7958;53.024;12.970;2022-12-18T05:10:11;22.47;;;9.87;;
3571;SDS011;7958;53.024;12.970;2022-12-18T05:12:38;24.27;;;10.67;;
3571;SDS011;7958;53.024;12.970;2022-12-18T05:15:22;23.90;;;9.97;;
3571;SDS011;7958;53.024;12.970;2022-12-18T05:17:49;21.57;;;9.60;;
3571;SDS011;7958;53.024;12.970;2022-12-18T05:20:16;20.97;;;9.40;;
3571;SDS011;7958;53.024;12.970;2022-12-18T05:22:43;21.37;;;10.00;;
3571;SDS011;7958;53.024;12.970;2022-12-18T05:25:09;21.70;;;8.40;;
3571;SDS011;7958;53.024;12.970;2022-12-18T05:27:37;24.20;;;10.57;;
3571;SDS011;7958;53.024;12.970;2022-12-18T05:30:03;22.27;;;9.30;;
3571;SDS011;7958;53.024;12.970;2022-12-18T05:32:30;29.53;;;10.87;;
3571;SDS011;7958;53.024;12.970;2022-12-18T05:34:57;21.20;;;8.87;;
3571;SDS011;7958;53.024;12.970;2022-12-18T05:37:23;19.47;;;8.20;;
3571;SDS011;7958;53.024;12.970;2022-12-18T05:39:50;31.47;;;12.47;;
3571;SDS011;7958;53.024;12.970;2022-12-18T05:42:16;23.00;;;9.70;;
3571;SDS011;7958;53.024;12.970;2022-12-18T05:44:44;22.53;;;9.80;;
3571;SDS011;7958;53.024;12.970;2022-12-18T05:47:10;29.73;;;11.83;;
3571;SDS011;7958;53.024;12.970;2022-12-18T05:49:37;19.70;;;9.77;;
3571;SDS011;7958;53.024;12.970;2022-12-18T05:52:03;28.37;;;10.07;;
3571;SDS011;7958;53.024;12.970;2022-12-18T05:54:30;20.77;;;9.47;;
3571;SDS011;7958;53.024;12.970;2022-12-18T05:56:56;27.00;;;11.07;;
3571;SDS011;7958;53.024;12.970;2022-12-18T05:59:23;29.00;;;11.37;;
3571;SDS011;7958;53.024;12.970;2022-12-18T06:01:51;20.60;;;9.93;;
3571;SDS011;7958;53.024;12.970;2022-12-18T06:04:18;26.90;;;11.60;;
3571;SDS011;7958;53.024;12.970;2022-12-18T06:06:44;31.80;;;10.33;;
3571;SDS011;7958;53.024;12.970;2022-12-18T06:09:10;22.90;;;10.10;;
3571;SDS011;7958;53.024;12.970;2022-12-18T06:11:37;26.83;;;8.90;;
3571;SDS011;7958;53.024;12.970;2022-12-18T06:14:04;31.77;;;10.93;;
3571;SDS011;7958;53.024;12.970;2022-12-18T06:16:31;25.33;;;10.90;;
3571;SDS011;7958;53.024;12.970;2022-12-18T06:19:00;28.17;;;11.90;;
3571;SDS011;7958;53.024;12.970;2022-12-18T06:21:28;20.07;;;8.67;;
3571;SDS011;7958;53.024;12.970;2022-12-18T06:23:55;27.47;;;9.47;;
3571;SDS011;7958;53.024;12.970;2022-12-18T06:26:21;29.90;;;11.27;;
3571;SDS011;7958;53.024;12.970;2022-12-18T06:28:48;23.93;;;10.10;;
3571;SDS011;7958;53.024;12.970;2022-12-18T06:31:15;22.60;;;10.70;;
3571;SDS011;7958;53.024;12.970;2022-12-18T06:33:41;26.23;;;9.30;;
3571;SDS011;7958;53.024;12.970;2022-12-18T06:36:11;28.30;;;9.33;;
3571;SDS011;7958;53.024;12.970;2022-12-18T06:38:41;33.30;;;11.60;;
3571;SDS011;7958;53.024;12.970;2022-12-18T06:41:08;22.10;;;9.97;;
3571;SDS011;7958;53.024;12.970;2022-12-18T06:43:35;21.83;;;10.53;;
3571;SDS011;7958;53.024;12.970;2022-12-18T06:46:03;27.07;;;9.23;;
3571;SDS011;7958;53.024;12.970;2022-12-18T06:48:30;28.70;;;10.43;;
3571;SDS011;7958;53.024;12.970;2022-12-18T06:50:57;23.63;;;10.23;;
3571;SDS011;7958;53.024;12.970;2022-12-18T06:53:25;25.67;;;10.67;;
3571;SDS011;7958;53.024;12.970;2022-12-18T06:55:52;28.00;;;11.10;;
3571;SDS011;7958;53.024;12.970;2022-12-18T06:58:19;29.93;;;11.40;;
3571;SDS011;7958;53.024;12.970;2022-12-18T07:00:45;30.83;;;10.67;;
3571;SDS011;7958;53.024;12.970;2022-12-18T07:03:12;28.30;;;11.30;;
3571;SDS011;7958;53.024;12.970;2022-12-18T07:05:39;25.33;;;10.87;;
3571;SDS011;7958;53.024;12.970;2022-12-18T07:08:05;26.40;;;10.37;;
3571;SDS011;7958;53.024;12.970;2022-12-18T07:10:33;27.90;;;11.87;;
3571;SDS011;7958;53.024;12.970;2022-12-18T07:12:59;23.10;;;9.70;;
3571;SDS011;7958;53.024;12.970;2022-12-18T07:15:26;27.07;;;10.50;;
3571;SDS011;7958;53.024;12.970;2022-12-18T07:17:52;27.47;;;11.27;;
3571;SDS011;7958;53.024;12.970;2022-12-18T07:20:18;32.33;;;14.13;;
3571;SDS011;7958;53.024;12.970;2022-12-18T07:22:45;33.20;;;15.20;;
3571;SDS011;7958;53.024;12.970;2022-12-18T07:25:11;46.63;;;20.50;;
3571;SDS011;7958;53.024;12.970;2022-12-18T07:27:39;30.33;;;10.43;;
3571;SDS011;7958;53.024;12.970;2022-12-18T07:30:06;39.23;;;15.93;;
3571;SDS011;7958;53.024;12.970;2022-12-18T07:32:33;33.90;;;14.80;;
3571;SDS011;7958;53.024;12.970;2022-12-18T07:35:00;37.30;;;15.03;;
3571;SDS011;7958;53.024;12.970;2022-12-18T07:37:26;30.50;;;14.03;;
3571;SDS011;7958;53.024;12.970;2022-12-18T07:39:53;26.37;;;13.47;;
3571;SDS011;7958;53.024;12.970;2022-12-18T07:42:19;25.97;;;10.70;;
3571;SDS011;7958;53.024;12.970;2022-12-18T07:44:59;25.03;;;10.13;;
3571;SDS011;7958;53.024;12.970;2022-12-18T07:47:26;23.10;;;10.33;;
3571;SDS011;7958;53.024;12.970;2022-12-18T07:49:52;32.40;;;13.80;;
3571;SDS011;7958;53.024;12.970;2022-12-18T07:52:19;34.17;;;16.47;;
3571;SDS011;7958;53.024;12.970;2022-12-18T07:54:45;32.40;;;14.90;;
3571;SDS011;7958;53.024;12.970;2022-12-18T07:57:14;31.37;;;13.50;;
3571;SDS011;7958;53.024;12.970;2022-12-18T07:59:41;36.07;;;15.67;;
3571;SDS011;7958;53.024;12.970;2022-12-18T08:02:08;37.23;;;18.40;;
3571;SDS011;7958;53.024;12.970;2022-12-18T08:04:35;34.87;;;17.17;;
3571;SDS011;7958;53.024;12.970;2022-12-18T08:07:01;27.07;;;11.77;;
3571;SDS011;7958;53.024;12.970;2022-12-18T08:09:28;22.00;;;9.97;;
3571;SDS011;7958;53.024;12.970;2022-12-18T08:11:55;20.57;;;8.80;;
3571;SDS011;7958;53.024;12.970;2022-12-18T08:14:22;29.73;;;13.50;;
3571;SDS011;7958;53.024;12.970;2022-12-18T08:16:51;30.33;;;10.47;;
3571;SDS011;7958;53.024;12.970;2022-12-18T08:19:19;22.97;;;9.20;;
3571;SDS011;7958;53.024;12.970;2022-12-18T08:21:46;27.83;;;12.37;;
3571;SDS011;7958;53.024;12.970;2022-12-18T08:24:13;24.37;;;9.57;;
3571;SDS011;7958;53.024;12.970;2022-12-18T08:26:39;22.70;;;9.13;;
3571;SDS011;7958;53.024;12.970;2022-12-18T08:29:05;23.60;;;9.67;;
3571;SDS011;7958;53.024;12.970;2022-12-18T08:31:32;20.83;;;9.63;;
3571;SDS011;7958;53.024;12.970;2022-12-18T08:33:59;20.67;;;9.87;;
3571;SDS011;7958;53.024;12.970;2022-12-18T08:36:26;23.40;;;9.07;;
3571;SDS011;7958;53.024;12.970;2022-12-18T08:38:53;18.53;;;9.67;;
3571;SDS011;7958;53.024;12.970;2022-12-18T08:41:19;21.30;;;8.43;;
3571;SDS011;7958;53.024;12.970;2022-12-18T08:43:46;23.93;;;9.50;;
3571;SDS011;7958;53.024;12.970;2022-12-18T08:46:32;20.93;;;8.67;;
3571;SDS011;7958;53.024;12.970;2022-12-18T08:48:59;21.47;;;9.50;;
3571;SDS011;7958;53.024;12.970;2022-12-18T08:51:27;19.60;;;8.43;;
3571;SDS011;7958;53.024;12.970;2022-12-18T08:53:55;18.03;;;8.90;;
3571;SDS011;7958;53.024;12.970;2022-12-18T08:56:22;18.80;;;9.77;;
3571;SDS011;7958;53.024;12.970;2022-12-18T08:58:53;19.30;;;9.23;;
3571;SDS011;7958;53.024;12.970;2022-12-18T09:04:04;23.67;;;10.33;;
3571;SDS011;7958;53.024;12.970;2022-12-18T09:06:32;24.13;;;10.30;;
3571;SDS011;7958;53.024;12.970;2022-12-18T09:09:02;22.07;;;9.30;;
3571;SDS011;7958;53.024;12.970;2022-12-18T09:11:29;20.13;;;9.57;;
3571;SDS011;7958;53.024;12.970;2022-12-18T09:13:56;20.60;;;9.63;;
3571;SDS011;7958;53.024;12.970;2022-12-18T09:16:24;27.97;;;9.87;;
3571;SDS011;7958;53.024;12.970;2022-12-18T09:18:51;27.17;;;8.97;;
3571;SDS011;7958;53.024;12.970;2022-12-18T09:21:19;23.07;;;9.63;;
3571;SDS011;7958;53.024;12.970;2022-12-18T09:23:50;18.93;;;9.43;;
3571;SDS011;7958;53.024;12.970;2022-12-18T09:26:16;27.33;;;9.27;;
3571;SDS011;7958;53.024;12.970;2022-12-18T09:28:43;22.73;;;9.10;;
3571;SDS011;7958;53.024;12.970;2022-12-18T09:31:10;25.17;;;9.67;;
3571;SDS011;7958;53.024;12.970;2022-12-18T09:33:40;24.50;;;10.07;;
3571;SDS011;7958;53.024;12.970;2022-12-18T09:36:08;28.00;;;10.97;;
3571;SDS011;7958;53.024;12.970;2022-12-18T09:38:38;28.17;;;11.17;;
3571;SDS011;7958;53.024;12.970;2022-12-18T09:41:14;22.90;;;9.90;;
3571;SDS011;7958;53.024;12.970;2022-12-18T09:43:45;25.77;;;11.17;;
3571;SDS011;7958;53.024;12.970;2022-12-18T09:46:17;19.67;;;10.00;;
3571;SDS011;7958;53.024;12.970;2022-12-18T09:48:45;27.10;;;11.10;;
3571;SDS011;7958;53.024;12.970;2022-12-18T09:51:22;26.93;;;11.60;;
3571;SDS011;7958;53.024;12.970;2022-12-18T09:53:50;24.67;;;10.77;;
3571;SDS011;7958;53.024;12.970;2022-12-18T09:56:19;26.23;;;11.10;;
3571;SDS011;7958;53.024;12.970;2022-12-18T09:58:49;28.17;;;12.13;;
3571;SDS011;7958;53.024;12.970;2022-12-18T10:01:21;27.13;;;11.57;;
3571;SDS011;7958;53.024;12.970;2022-12-18T10:03:49;27.67;;;11.20;;
3571;SDS011;7958;53.024;12.970;2022-12-18T10:06:18;25.70;;;11.10;;
3571;SDS011;7958;53.024;12.970;2022-12-18T10:08:49;23.67;;;10.60;;
3571;SDS011;7958;53.024;12.970;2022-12-18T10:11:25;21.87;;;10.23;;
3571;SDS011;7958;53.024;12.970;2022-12-18T10:13:56;23.43;;;9.80;;
3571;SDS011;7958;53.024;12.970;2022-12-18T10:16:27;25.17;;;11.47;;
3571;SDS011;7958;53.024;12.970;2022-12-18T10:19:02;30.43;;;12.00;;
3571;SDS011;7958;53.024;12.970;2022-12-18T10:21:59;36.07;;;13.37;;
3571;SDS011;7958;53.024;12.970;2022-12-18T10:24:31;24.60;;;10.53;;
3571;SDS011;7958;53.024;12.970;2022-12-18T10:27:08;29.83;;;11.77;;
3571;SDS011;7958;53.024;12.970;2022-12-18T10:29:42;25.53;;;10.97;;
3571;SDS011;7958;53.024;12.970;2022-12-18T10:32:13;29.57;;;11.87;;
3571;SDS011;7958;53.024;12.970;2022-12-18T10:34:46;33.60;;;12.07;;
3571;SDS011;7958;53.024;12.970;2022-12-18T10:37:22;34.43;;;13.00;;
3571;SDS011;7958;53.024;12.970;2022-12-18T10:40:11;27.73;;;12.53;;
3571;SDS011;7958;53.024;12.970;2022-12-18T10:42:55;28.50;;;11.30;;
3571;SDS011;7958;53.024;12.970;2022-12-18T10:45:29;29.33;;;11.70;;
3571;SDS011;7958;53.024;12.970;2022-12-18T10:47:56;24.20;;;10.80;;
3571;SDS011;7958;53.024;12.970;2022-12-18T10:50:24;26.83;;;11.80;;
3571;SDS011;7958;53.024;12.970;2022-12-18T10:52:54;31.73;;;12.20;;
3571;SDS011;7958;53.024;12.970;2022-12-18T10:55:21;36.50;;;13.33;;
3571;SDS011;7958;53.024;12.970;2022-12-18T10:57:47;33.43;;;12.17;;
3571;SDS011;7958;53.024;12.970;2022-12-18T11:02:52;29.43;;;13.67;;
3571;SDS011;7958;53.024;12.970;2022-12-18T11:05:23;27.07;;;12.00;;
3571;SDS011;7958;53.024;12.970;2022-12-18T11:07:51;27.30;;;12.47;;
3571;SDS011;7958;53.024;12.970;2022-12-18T11:10:19;27.77;;;12.00;;
3571;SDS011;7958;53.024;12.970;2022-12-18T11:12:46;28.67;;;12.57;;
3571;SDS011;7958;53.024;12.970;2022-12-18T11:15:15;30.80;;;12.10;;
3571;SDS011;7958;53.024;12.970;2022-12-18T11:17:44;30.27;;;13.50;;
3571;SDS011;7958;53.024;12.970;2022-12-18T11:20:19;25.83;;;12.30;;
3571;SDS011;7958;53.024;12.970;2022-12-18T11:22:54;26.80;;;11.80;;
3571;SDS011;7958;53.024;12.970;2022-12-18T11:25:22;32.47;;;13.10;;
3571;SDS011;7958;53.024;12.970;2022-12-18T11:27:49;32.40;;;13.57;;
3571;SDS011;7958;53.024;12.970;2022-12-18T11:30:21;26.73;;;11.60;;
3571;SDS011;7958;53.024;12.970;2022-12-18T11:32:50;28.83;;;12.07;;
3571;SDS011;7958;53.024;12.970;2022-12-18T11:35:21;29.73;;;12.73;;
3571;SDS011;7958;53.024;12.970;2022-12-18T11:37:54;25.93;;;11.90;;
3571;SDS011;7958;53.024;12.970;2022-12-18T11:40:30;26.20;;;11.57;;
3571;SDS011;7958;53.024;12.970;2022-12-18T11:43:02;25.20;;;10.97;;
3571;SDS011;7958;53.024;12.970;2022-12-18T11:45:33;33.40;;;13.73;;
3571;SDS011;7958;53.024;12.970;2022-12-18T11:48:05;27.67;;;12.37;;
3571;SDS011;7958;53.024;12.970;2022-12-18T11:50:41;22.97;;;11.70;;
3571;SDS011;7958;53.024;12.970;2022-12-18T11:53:11;26.73;;;11.63;;
3571;SDS011;7958;53.024;12.970;2022-12-18T11:55:43;21.80;;;11.90;;
3571;SDS011;7958;53.024;12.970;2022-12-18T11:58:17;20.20;;;9.53;;
3571;SDS011;7958;53.024;12.970;2022-12-18T12:00:52;23.03;;;11.50;;
3571;SDS011;7958;53.024;12.970;2022-12-18T12:03:35;24.10;;;10.60;;
3571;SDS011;7958;53.024;12.970;2022-12-18T12:06:09;16.80;;;8.90;;
3571;SDS011;7958;53.024;12.970;2022-12-18T12:08:43;19.60;;;10.93;;
3571;SDS011;7958;53.024;12.970;2022-12-18T12:11:16;24.00;;;10.30;;
3571;SDS011;7958;53.024;12.970;2022-12-18T12:13:52;19.93;;;9.80;;
3571;SDS011;7958;53.024;12.970;2022-12-18T12:16:29;16.73;;;8.83;;
3571;SDS011;7958;53.024;12.970;2022-12-18T12:32:51;22.07;;;9.23;;
3571;SDS011;7958;53.024;12.970;2022-12-18T12:36:20;21.17;;;9.43;;
3571;SDS011;7958;53.024;12.970;2022-12-18T12:38:53;22.83;;;9.70;;
3571;SDS011;7958;53.024;12.970;2022-12-18T12:41:23;18.00;;;9.10;;
3571;SDS011;7958;53.024;12.970;2022-12-18T12:44:14;22.77;;;9.87;;
3571;SDS011;7958;53.024;12.970;2022-12-18T12:46:43;24.77;;;11.10;;
3571;SDS011;7958;53.024;12.970;2022-12-18T12:49:11;24.60;;;10.33;;
3571;SDS011;7958;53.024;12.970;2022-12-18T12:51:39;29.70;;;12.40;;
3571;SDS011;7958;53.024;12.970;2022-12-18T12:54:10;28.00;;;11.37;;
3571;SDS011;7958;53.024;12.970;2022-12-18T12:56:40;23.17;;;10.83;;
3571;SDS011;7958;53.024;12.970;2022-12-18T12:59:13;24.47;;;11.53;;
3571;SDS011;7958;53.024;12.970;2022-12-18T13:01:46;23.30;;;10.70;;
3571;SDS011;7958;53.024;12.970;2022-12-18T13:04:33;29.20;;;11.27;;
3571;SDS011;7958;53.024;12.970;2022-12-18T13:07:03;24.47;;;10.57;;
3571;SDS011;7958;53.024;12.970;2022-12-18T13:09:33;25.40;;;11.93;;
3571;SDS011;7958;53.024;12.970;2022-12-18T13:12:01;27.10;;;11.40;;
3571;SDS011;7958;53.024;12.970;2022-12-18T13:14:48;24.27;;;12.47;;
3571;SDS011;7958;53.024;12.970;2022-12-18T13:17:15;57.33;;;26.57;;
3571;SDS011;7958;53.024;12.970;2022-12-18T13:20:04;37.03;;;17.73;;
3571;SDS011;7958;53.024;12.970;2022-12-18T13:22:34;51.80;;;21.83;;
3571;SDS011;7958;53.024;12.970;2022-12-18T13:25:01;29.23;;;12.27;;
3571;SDS011;7958;53.024;12.970;2022-12-18T13:36:15;25.10;;;12.30;;
3571;SDS011;7958;53.024;12.970;2022-12-18T13:38:43;22.10;;;11.50;;
3571;SDS011;7958;53.024;12.970;2022-12-18T13:41:23;22.83;;;12.13;;
3571;SDS011;7958;53.024;12.970;2022-12-18T13:43:51;20.07;;;11.13;;
3571;SDS011;7958;53.024;12.970;2022-12-18T13:46:20;31.07;;;16.13;;
3571;SDS011;7958;53.024;12.970;2022-12-18T13:49:02;36.53;;;15.80;;
3571;SDS011;7958;53.024;12.970;2022-12-18T13:51:32;31.70;;;14.87;;
3571;SDS011;7958;53.024;12.970;2022-12-18T13:54:00;23.83;;;10.43;;
3571;SDS011;7958;53.024;12.970;2022-12-18T13:56:42;27.03;;;13.10;;
3571;SDS011;7958;53.024;12.970;2022-12-18T13:59:11;25.70;;;11.77;;
3571;SDS011;7958;53.024;12.970;2022-12-18T14:01:44;24.33;;;10.20;;
3571;SDS011;7958;53.024;12.970;2022-12-18T14:04:16;19.87;;;9.73;;
3571;SDS011;7958;53.024;12.970;2022-12-18T14:06:47;23.60;;;12.20;;
3571;SDS011;7958;53.024;12.970;2022-12-18T14:09:16;24.63;;;11.20;;
3571;SDS011;7958;53.024;12.970;2022-12-18T14:11:47;24.27;;;10.73;;
3571;SDS011;7958;53.024;12.970;2022-12-18T14:14:18;26.03;;;11.77;;
3571;SDS011;7958;53.024;12.970;2022-12-18T14:16:49;23.80;;;11.53;;
3571;SDS011;7958;53.024;12.970;2022-12-18T14:19:16;24.57;;;11.47;;
3571;SDS011;7958;53.024;12.970;2022-12-18T14:21:47;27.57;;;10.83;;
3571;SDS011;7958;53.024;12.970;2022-12-18T14:24:14;25.73;;;10.27;;
3571;SDS011;7958;53.024;12.970;2022-12-18T14:26:42;30.40;;;11.40;;
3571;SDS011;7958;53.024;12.970;2022-12-18T14:29:19;32.67;;;12.13;;
3571;SDS011;7958;53.024;12.970;2022-12-18T14:34:52;25.43;;;11.77;;
3571;SDS011;7958;53.024;12.970;2022-12-18T14:37:20;23.00;;;11.47;;
3571;SDS011;7958;53.024;12.970;2022-12-18T14:39:54;36.30;;;13.90;;
3571;SDS011;7958;53.024;12.970;2022-12-18T14:42:22;26.07;;;12.13;;
3571;SDS011;7958;53.024;12.970;2022-12-18T14:47:56;33.13;;;13.37;;
3571;SDS011;7958;53.024;12.970;2022-12-18T14:50:24;29.87;;;12.40;;
3571;SDS011;7958;53.024;12.970;2022-12-18T14:52:51;27.10;;;12.53;;
3571;SDS011;7958;53.024;12.970;2022-12-18T14:55:18;27.97;;;13.10;;
3571;SDS011;7958;53.024;12.970;2022-12-18T14:57:46;30.50;;;12.60;;
3571;SDS011;7958;53.024;12.970;2022-12-18T15:00:17;29.40;;;12.37;;
3571;SDS011;7958;53.024;12.970;2022-12-18T15:02:47;35.43;;;13.20;;
3571;SDS011;7958;53.024;12.970;2022-12-18T15:05:17;26.03;;;11.30;;
3571;SDS011;7958;53.024;12.970;2022-12-18T15:07:47;22.60;;;11.00;;
3571;SDS011;7958;53.024;12.970;2022-12-18T15:10:18;30.57;;;12.73;;
3571;SDS011;7958;53.024;12.970;2022-12-18T15:15:48;30.70;;;11.87;;
3571;SDS011;7958;53.024;12.970;2022-12-18T15:18:15;32.70;;;11.17;;
3571;SDS011;7958;53.024;12.970;2022-12-18T15:20:52;25.90;;;12.43;;
3571;SDS011;7958;53.024;12.970;2022-12-18T15:23:25;27.03;;;12.40;;
3571;SDS011;7958;53.024;12.970;2022-12-18T15:25:55;24.03;;;12.07;;
3571;SDS011;7958;53.024;12.970;2022-12-18T15:28:23;21.77;;;10.50;;
3571;SDS011;7958;53.024;12.970;2022-12-18T15:31:01;29.70;;;12.40;;
3571;SDS011;7958;53.024;12.970;2022-12-18T15:33:31;21.77;;;9.70;;
3571;SDS011;7958;53.024;12.970;2022-12-18T15:35:59;23.23;;;10.43;;